createdAt,value
2017-08-22T00:00:41.731Z,0
2017-08-22T00:01:42.036Z,0
2017-08-22T00:02:41.386Z,0
2017-08-22T00:03:41.694Z,0
2017-08-22T00:04:41.369Z,0
2017-08-22T00:05:41.961Z,0
2017-08-22T00:06:41.336Z,0
2017-08-22T00:07:41.638Z,0
2017-08-22T00:08:41.920Z,0
2017-08-22T00:09:41.303Z,0
2017-08-22T00:10:41.587Z,0
2017-08-22T00:11:41.868Z,0
2017-08-22T00:12:41.252Z,0
2017-08-22T00:13:41.237Z,0
2017-08-22T00:14:41.218Z,0
2017-08-22T00:15:41.209Z,0
2017-08-22T00:16:41.497Z,0
2017-08-22T00:17:41.801Z,0
2017-08-22T00:18:41.469Z,0
2017-08-22T00:19:41.462Z,0
2017-08-22T00:20:41.450Z,0
2017-08-22T00:21:41.433Z,0
2017-08-22T00:22:41.726Z,0
2017-08-22T00:23:41.395Z,0
2017-08-22T00:24:41.374Z,0
2017-08-22T00:25:41.667Z,0
2017-08-22T00:26:41.048Z,0
2017-08-22T00:27:41.059Z,0
2017-08-22T00:28:41.330Z,0
2017-08-22T00:29:41.297Z,0
2017-08-22T00:30:41.610Z,0
2017-08-22T00:31:41.290Z,0
2017-08-22T00:32:41.262Z,0
2017-08-22T00:33:41.558Z,0
2017-08-22T00:34:41.230Z,0
2017-08-22T00:35:41.518Z,0
2017-08-22T00:36:41.504Z,0
2017-08-22T00:37:41.203Z,0
2017-08-22T00:38:41.487Z,0
2017-08-22T00:39:41.463Z,0
2017-08-22T00:40:40.849Z,0
2017-08-22T00:41:41.441Z,0
2017-08-22T00:42:40.827Z,0
2017-08-22T00:43:41.094Z,0
2017-08-22T00:44:41.091Z,0
2017-08-22T00:45:40.773Z,0
2017-08-22T00:46:41.062Z,0
2017-08-22T00:47:41.051Z,0
2017-08-22T00:48:41.035Z,0
2017-08-22T00:49:41.015Z,0
2017-08-22T00:50:41.004Z,0
2017-08-22T00:51:41.003Z,0
2017-08-22T00:52:40.676Z,0
2017-08-22T00:53:40.972Z,0
2017-08-22T00:54:41.248Z,0
2017-08-22T00:55:40.929Z,0
2017-08-22T00:56:40.926Z,0
2017-08-22T00:57:40.901Z,0
2017-08-22T00:58:40.888Z,0
2017-08-22T00:59:40.881Z,0
2017-08-22T01:00:41.164Z,0
2017-08-22T01:01:41.157Z,0
2017-08-22T01:02:41.136Z,0
2017-08-22T01:03:41.114Z,0
2017-08-22T01:04:41.110Z,0
2017-08-22T01:05:41.091Z,0
2017-08-22T01:06:41.123Z,0
2017-08-22T01:07:41.069Z,0
2017-08-22T01:08:40.732Z,0
2017-08-22T01:09:41.045Z,0
2017-08-22T01:10:41.026Z,0
2017-08-22T01:11:40.994Z,0
2017-08-22T01:12:40.998Z,0
2017-08-22T01:13:40.968Z,0
2017-08-22T01:14:40.651Z,0
2017-08-22T01:15:40.947Z,0
2017-08-22T01:16:40.934Z,0
2017-08-22T01:17:40.925Z,0
2017-08-22T01:18:40.906Z,0
2017-08-22T01:19:40.896Z,0
2017-08-22T01:20:40.877Z,0
2017-08-22T01:21:40.853Z,0
2017-08-22T01:22:40.840Z,0
2017-08-22T01:23:40.827Z,0
2017-08-22T01:24:40.825Z,0
2017-08-22T01:25:40.501Z,0
2017-08-22T01:26:40.812Z,0
2017-08-22T01:27:40.762Z,0
2017-08-22T01:28:40.764Z,0
2017-08-22T01:29:40.737Z,0
2017-08-22T01:30:40.437Z,0
2017-08-22T01:31:40.723Z,0
2017-08-22T01:32:40.088Z,0
2017-08-22T01:33:40.697Z,0
2017-08-22T01:34:40.076Z,0
2017-08-22T01:35:40.350Z,0
2017-08-22T01:36:40.646Z,0
2017-08-22T01:37:40.025Z,0
2017-08-22T01:38:40.006Z,0
2017-08-22T01:39:40.296Z,0
2017-08-22T01:40:40.287Z,0
2017-08-22T01:41:40.579Z,0
2017-08-22T01:42:40.554Z,0
2017-08-22T01:43:40.549Z,0
2017-08-22T01:44:39.918Z,0
2017-08-22T01:45:40.521Z,0
2017-08-22T01:46:40.188Z,0
2017-08-22T01:47:40.175Z,0
2017-08-22T01:48:40.171Z,0
2017-08-22T01:49:40.155Z,0
2017-08-22T01:50:39.829Z,0
2017-08-22T01:51:39.818Z,0
2017-08-22T01:52:40.114Z,0
2017-08-22T01:53:39.483Z,0
2017-08-22T01:54:40.075Z,0
2017-08-22T01:55:40.068Z,0
2017-08-22T01:56:40.352Z,0
2017-08-22T01:57:40.043Z,0
2017-08-22T01:58:40.324Z,0
2017-08-22T01:59:40.013Z,0
2017-08-22T02:00:40.295Z,0
2017-08-22T02:01:39.983Z,0
2017-08-22T02:02:39.973Z,0
2017-08-22T02:03:40.241Z,0
2017-08-22T02:04:39.958Z,0
2017-08-22T02:05:40.237Z,0
2017-08-22T02:06:39.915Z,0
2017-08-22T02:07:39.895Z,0
2017-08-22T02:08:39.878Z,0
2017-08-22T02:09:39.872Z,0
2017-08-22T02:10:40.160Z,0
2017-08-22T02:11:40.140Z,0
2017-08-22T02:12:40.153Z,0
2017-08-22T02:13:40.117Z,0
2017-08-22T02:14:40.096Z,0
2017-08-22T02:15:40.082Z,0
2017-08-22T02:16:40.071Z,0
2017-08-22T02:17:40.054Z,0
2017-08-22T02:18:40.032Z,0
2017-08-22T02:19:40.032Z,0
2017-08-22T02:20:40.006Z,0
2017-08-22T02:21:40.001Z,0
2017-08-22T02:22:39.978Z,0
2017-08-22T02:23:39.982Z,0
2017-08-22T02:24:39.952Z,0
2017-08-22T02:25:39.945Z,0
2017-08-22T02:26:39.927Z,0
2017-08-22T02:27:39.920Z,0
2017-08-22T02:28:39.904Z,0
2017-08-22T02:29:39.883Z,0
2017-08-22T02:30:39.259Z,0
2017-08-22T02:31:39.240Z,0
2017-08-22T02:32:39.842Z,0
2017-08-22T02:33:39.838Z,0
2017-08-22T02:34:39.813Z,0
2017-08-22T02:35:39.506Z,0
2017-08-22T02:36:39.792Z,0
2017-08-22T02:37:39.771Z,0
2017-08-22T02:38:39.781Z,0
2017-08-22T02:39:39.441Z,0
2017-08-22T02:40:39.427Z,0
2017-08-22T02:41:39.714Z,0
2017-08-22T02:42:39.695Z,0
2017-08-22T02:43:39.381Z,0
2017-08-22T02:44:39.667Z,0
2017-08-22T02:45:39.654Z,0
2017-08-22T02:46:39.637Z,0
2017-08-22T02:47:39.323Z,0
2017-08-22T02:48:39.306Z,0
2017-08-22T02:49:39.309Z,0
2017-08-22T02:50:39.285Z,0
2017-08-22T02:51:39.273Z,0
2017-08-22T02:52:39.560Z,0
2017-08-22T02:53:38.946Z,0
2017-08-22T02:54:39.526Z,0
2017-08-22T02:55:39.509Z,0
2017-08-22T02:56:39.490Z,0
2017-08-22T02:57:39.500Z,0
2017-08-22T02:58:39.172Z,0
2017-08-22T02:59:39.461Z,0
2017-08-22T03:00:39.446Z,0
2017-08-22T03:01:39.432Z,0
2017-08-22T03:02:39.417Z,0
2017-08-22T03:03:39.424Z,0
2017-08-22T03:04:39.087Z,0
2017-08-22T03:05:38.770Z,0
2017-08-22T03:06:39.065Z,0
2017-08-22T03:07:39.046Z,0
2017-08-22T03:08:39.025Z,0
2017-08-22T03:09:39.309Z,0
2017-08-22T03:10:38.382Z,0
2017-08-22T03:11:38.994Z,0
2017-08-22T03:12:39.269Z,0
2017-08-22T03:13:38.962Z,0
2017-08-22T03:14:38.947Z,0
2017-08-22T03:15:38.933Z,0
2017-08-22T03:16:38.904Z,0
2017-08-22T03:17:38.897Z,0
2017-08-22T03:18:38.883Z,0
2017-08-22T03:19:39.170Z,0
2017-08-22T03:20:39.160Z,0
2017-08-22T03:21:39.146Z,0
2017-08-22T03:22:39.125Z,0
2017-08-22T03:23:39.126Z,0
2017-08-22T03:24:39.121Z,0
2017-08-22T03:25:39.094Z,0
2017-08-22T03:26:39.089Z,0
2017-08-22T03:27:38.768Z,0
2017-08-22T03:28:39.046Z,0
2017-08-22T03:29:39.040Z,0
2017-08-22T03:30:38.745Z,0
2017-08-22T03:31:39.011Z,0
2017-08-22T03:32:39.002Z,0
2017-08-22T03:33:38.976Z,0
2017-08-22T03:34:38.975Z,0
2017-08-22T03:35:38.954Z,0
2017-08-22T03:36:38.949Z,0
2017-08-22T03:37:38.936Z,0
2017-08-22T03:38:38.908Z,0
2017-08-22T03:39:38.600Z,0
2017-08-22T03:40:38.885Z,0
2017-08-22T03:41:38.865Z,0
2017-08-22T03:42:38.851Z,0
2017-08-22T03:43:38.831Z,0
2017-08-22T03:44:38.827Z,0
2017-08-22T03:45:38.829Z,0
2017-08-22T03:46:38.813Z,0
2017-08-22T03:47:38.792Z,0
2017-08-22T03:48:38.787Z,0
2017-08-22T03:49:38.750Z,0
2017-08-22T03:50:38.739Z,0
2017-08-22T03:51:38.738Z,0
2017-08-22T03:52:38.721Z,4
2017-08-22T03:53:38.692Z,4
2017-08-22T03:54:38.697Z,4
2017-08-22T03:55:38.675Z,4
2017-08-22T03:56:38.654Z,0
2017-08-22T03:57:38.344Z,4
2017-08-22T03:58:38.335Z,4
2017-08-22T03:59:38.036Z,4
2017-08-22T04:00:38.595Z,4
2017-08-22T04:01:37.996Z,8
2017-08-22T04:02:38.577Z,8
2017-08-22T04:03:37.971Z,12
2017-08-22T04:04:38.245Z,12
2017-08-22T04:05:38.221Z,12
2017-08-22T04:06:38.214Z,16
2017-08-22T04:07:38.508Z,24
2017-08-22T04:08:38.491Z,28
2017-08-22T04:09:38.170Z,28
2017-08-22T04:10:38.158Z,32
2017-08-22T04:11:38.456Z,36
2017-08-22T04:12:38.426Z,44
2017-08-22T04:13:38.131Z,44
2017-08-22T04:14:38.109Z,48
2017-08-22T04:15:38.392Z,64
2017-08-22T04:16:38.077Z,76
2017-08-22T04:17:38.355Z,88
2017-08-22T04:18:38.047Z,96
2017-08-22T04:19:38.331Z,116
2017-08-22T04:20:38.331Z,148
2017-08-22T04:21:38.314Z,156
2017-08-22T04:22:38.294Z,140
2017-08-22T04:23:38.294Z,152
2017-08-22T04:24:38.261Z,184
2017-08-22T04:25:38.261Z,196
2017-08-22T04:26:38.252Z,216
2017-08-22T04:27:38.241Z,208
2017-08-22T04:28:38.210Z,208
2017-08-22T04:29:38.201Z,264
2017-08-22T04:30:38.176Z,280
2017-08-22T04:31:38.183Z,240
2017-08-22T04:32:38.175Z,272
2017-08-22T04:33:38.134Z,300
2017-08-22T04:34:38.137Z,356
2017-08-22T04:35:38.114Z,356
2017-08-22T04:36:38.114Z,364
2017-08-22T04:37:38.100Z,348
2017-08-22T04:38:38.072Z,388
2017-08-22T04:39:38.070Z,472
2017-08-22T04:40:38.055Z,456
2017-08-22T04:41:38.034Z,460
2017-08-22T04:42:38.023Z,452
2017-08-22T04:43:38.018Z,516
2017-08-22T04:44:38.006Z,608
2017-08-22T04:45:37.964Z,644
2017-08-22T04:46:37.962Z,600
2017-08-22T04:47:37.952Z,612
2017-08-22T04:48:37.936Z,544
2017-08-22T04:49:37.931Z,560
2017-08-22T04:50:37.923Z,636
2017-08-22T04:51:37.585Z,736
2017-08-22T04:52:37.879Z,680
2017-08-22T04:53:37.875Z,596
2017-08-22T04:54:37.855Z,768
2017-08-22T04:55:37.840Z,856
2017-08-22T04:56:37.835Z,1080
2017-08-22T04:57:37.806Z,928
2017-08-22T04:58:37.798Z,1060
2017-08-22T04:59:37.793Z,984
2017-08-22T05:00:37.768Z,1288
2017-08-22T05:01:37.767Z,1636
2017-08-22T05:02:37.744Z,1732
2017-08-22T05:03:37.753Z,2172
2017-08-22T05:04:37.723Z,2212
2017-08-22T05:05:37.704Z,2540
2017-08-22T05:06:37.673Z,2644
2017-08-22T05:07:37.057Z,2636
2017-08-22T05:08:37.676Z,2912
2017-08-22T05:09:37.336Z,2816
2017-08-22T05:10:37.655Z,3536
2017-08-22T05:11:37.634Z,4736
2017-08-22T05:12:37.601Z,3080
2017-08-22T05:13:37.296Z,2652
2017-08-22T05:14:37.569Z,2788
2017-08-22T05:15:37.560Z,2964
2017-08-22T05:16:37.257Z,4472
2017-08-22T05:17:37.552Z,6004
2017-08-22T05:18:37.217Z,3760
2017-08-22T05:19:37.499Z,3048
2017-08-22T05:20:37.501Z,4000
2017-08-22T05:21:37.469Z,3404
2017-08-22T05:22:36.552Z,3196
2017-08-22T05:23:37.147Z,3340
2017-08-22T05:24:37.129Z,2752
2017-08-22T05:25:37.119Z,2764
2017-08-22T05:26:37.110Z,3872
2017-08-22T05:27:37.403Z,4880
2017-08-22T05:28:37.081Z,4116
2017-08-22T05:29:37.053Z,4044
2017-08-22T05:30:37.360Z,4328
2017-08-22T05:31:37.044Z,3684
2017-08-22T05:32:37.017Z,4748
2017-08-22T05:33:37.018Z,5340
2017-08-22T05:34:37.293Z,3912
2017-08-22T05:35:37.278Z,4436
2017-08-22T05:36:37.274Z,7636
2017-08-22T05:37:37.246Z,6336
2017-08-22T05:38:37.255Z,6996
2017-08-22T05:39:37.228Z,6872
2017-08-22T05:40:37.232Z,7936
2017-08-22T05:41:37.188Z,7848
2017-08-22T05:42:37.193Z,5828
2017-08-22T05:43:37.176Z,6336
2017-08-22T05:44:37.157Z,5424
2017-08-22T05:45:37.144Z,7988
2017-08-22T05:46:36.820Z,12624
2017-08-22T05:47:37.126Z,13424
2017-08-22T05:48:37.104Z,7860
2017-08-22T05:49:37.095Z,9292
2017-08-22T05:50:37.081Z,9844
2017-08-22T05:51:36.763Z,5412
2017-08-22T05:52:37.034Z,6084
2017-08-22T05:53:37.035Z,9172
2017-08-22T05:54:37.018Z,8184
2017-08-22T05:55:37.018Z,6512
2017-08-22T05:56:37.003Z,5512
2017-08-22T05:57:36.678Z,4452
2017-08-22T05:58:36.975Z,7716
2017-08-22T05:59:36.954Z,12244
2017-08-22T06:00:36.935Z,10340
2017-08-22T06:01:36.957Z,9896
2017-08-22T06:02:36.909Z,9300
2017-08-22T06:03:36.910Z,9028
2017-08-22T06:04:36.897Z,6524
2017-08-22T06:05:36.867Z,6452
2017-08-22T06:06:36.855Z,8896
2017-08-22T06:07:36.832Z,13264
2017-08-22T06:08:36.828Z,9612
2017-08-22T06:09:36.828Z,8472
2017-08-22T06:10:36.795Z,13156
2017-08-22T06:11:36.178Z,12116
2017-08-22T06:12:36.466Z,9652
2017-08-22T06:13:36.769Z,7956
2017-08-22T06:14:36.748Z,14188
2017-08-22T06:15:36.726Z,10672
2017-08-22T06:16:36.760Z,12984
2017-08-22T06:17:36.712Z,14332
2017-08-22T06:18:36.686Z,14092
2017-08-22T06:19:36.671Z,12056
2017-08-22T06:20:36.668Z,16608
2017-08-22T06:21:36.665Z,12252
2017-08-22T06:22:36.625Z,14728
2017-08-22T06:23:36.628Z,11616
2017-08-22T06:24:36.614Z,10636
2017-08-22T06:25:36.595Z,10248
2017-08-22T06:26:36.585Z,10268
2017-08-22T06:27:35.956Z,12828
2017-08-22T06:28:36.556Z,11856
2017-08-22T06:29:36.544Z,26688
2017-08-22T06:30:36.529Z,17312
2017-08-22T06:31:36.517Z,27968
2017-08-22T06:32:36.503Z,19648
2017-08-22T06:33:36.187Z,23072
2017-08-22T06:34:36.163Z,15952
2017-08-22T06:35:36.452Z,12932
2017-08-22T06:36:36.139Z,14208
2017-08-22T06:37:36.433Z,17824
2017-08-22T06:38:36.110Z,20928
2017-08-22T06:39:36.102Z,22272
2017-08-22T06:40:36.087Z,19392
2017-08-22T06:41:36.376Z,38976
2017-08-22T06:42:36.368Z,18432
2017-08-22T06:43:36.339Z,15524
2017-08-22T06:44:36.022Z,20384
2017-08-22T06:45:36.347Z,14912
2017-08-22T06:51:51.786Z,22848
2017-08-22T06:52:22.267Z,20352
2017-08-22T06:53:21.953Z,12992
2017-08-22T06:54:22.549Z,15056
2017-08-22T06:55:22.509Z,22464
2017-08-22T06:56:22.521Z,14692
2017-08-22T06:57:22.195Z,17344
2017-08-22T06:58:22.176Z,15644
2017-08-22T06:59:22.474Z,22784
2017-08-22T07:00:22.447Z,13532
2017-08-22T07:01:22.444Z,16696
2017-08-22T07:02:22.120Z,17472
2017-08-22T07:03:22.408Z,23808
2017-08-22T07:04:22.399Z,27296
2017-08-22T07:05:22.379Z,33344
2017-08-22T07:06:22.373Z,21984
2017-08-22T07:07:22.352Z,26112
2017-08-22T07:08:22.350Z,16172
2017-08-22T07:09:22.339Z,17056
2017-08-22T07:10:22.320Z,14336
2017-08-22T07:11:22.312Z,15652
2017-08-22T07:12:22.295Z,15188
2017-08-22T07:13:22.271Z,13752
2017-08-22T07:14:21.959Z,11608
2017-08-22T07:15:22.258Z,9588
2017-08-22T07:16:22.239Z,11484
2017-08-22T07:17:22.221Z,20288
2017-08-22T07:18:22.201Z,40256
2017-08-22T07:19:21.882Z,31840
2017-08-22T07:20:21.868Z,28288
2017-08-22T07:21:22.161Z,15868
2017-08-22T07:22:22.155Z,16960
2017-08-22T07:23:22.139Z,17920
2017-08-22T07:24:22.124Z,16664
2017-08-22T07:25:22.106Z,24320
2017-08-22T07:26:22.084Z,34944
2017-08-22T07:27:22.077Z,31936
2017-08-22T07:28:21.773Z,32384
2017-08-22T07:29:21.753Z,30528
2017-08-22T07:30:21.433Z,24704
2017-08-22T07:31:22.028Z,14368
2017-08-22T07:32:21.704Z,17856
2017-08-22T07:33:21.996Z,31264
2017-08-22T07:34:21.980Z,21440
2017-08-22T07:35:21.978Z,15720
2017-08-22T07:36:21.961Z,21376
2017-08-22T07:37:21.946Z,34816
2017-08-22T07:38:21.627Z,29152
2017-08-22T07:39:21.619Z,36672
2017-08-22T07:40:21.298Z,54208
2017-08-22T07:41:21.882Z,23040
2017-08-22T07:42:21.577Z,34976
2017-08-22T07:43:21.556Z,30304
2017-08-22T07:44:21.849Z,36160
2017-08-22T07:45:21.527Z,20416
2017-08-22T07:46:21.519Z,28864
2017-08-22T07:47:21.507Z,41024
2017-08-22T07:48:21.786Z,22784
2017-08-22T07:49:21.784Z,25376
2017-08-22T07:50:21.466Z,32480
2017-08-22T07:51:21.458Z,21888
2017-08-22T07:52:21.491Z,17600
2017-08-22T07:53:21.720Z,25888
2017-08-22T07:54:21.409Z,24896
2017-08-22T07:55:21.688Z,21152
2017-08-22T07:56:21.684Z,26848
2017-08-22T07:57:21.072Z,24320
2017-08-22T07:58:21.660Z,29664
2017-08-22T07:59:21.640Z,30272
2017-08-22T08:00:21.326Z,26304
2017-08-22T08:01:21.636Z,21984
2017-08-22T08:02:21.610Z,27840
2017-08-22T08:03:21.608Z,22432
2017-08-22T08:04:21.276Z,38272
2017-08-22T08:05:21.270Z,25696
2017-08-22T08:06:21.545Z,22208
2017-08-22T08:07:21.546Z,24384
2017-08-22T08:08:21.230Z,30176
2017-08-22T08:09:21.521Z,50912
2017-08-22T08:10:21.504Z,31264
2017-08-22T08:11:21.500Z,26432
2017-08-22T08:12:21.481Z,29856
2017-08-22T08:13:21.465Z,23904
2017-08-22T08:14:21.145Z,27040
2017-08-22T08:15:21.438Z,27360
2017-08-22T08:16:21.415Z,31424
2017-08-22T08:17:21.412Z,28640
2017-08-22T08:18:21.402Z,39072
2017-08-22T08:19:21.389Z,39552
2017-08-22T08:20:21.373Z,26944
2017-08-22T08:21:21.348Z,34848
2017-08-22T08:22:21.345Z,45984
2017-08-22T08:23:21.342Z,38816
2017-08-22T08:24:21.316Z,46016
2017-08-22T08:25:21.303Z,39360
2017-08-22T08:26:21.315Z,33728
2017-08-22T08:27:20.979Z,35360
2017-08-22T08:28:21.272Z,35008
2017-08-22T08:29:21.265Z,34720
2017-08-22T08:30:21.258Z,41056
2017-08-22T08:31:21.237Z,34656
2017-08-22T08:32:21.233Z,34176
2017-08-22T08:33:21.218Z,33728
2017-08-22T08:34:20.916Z,32000
2017-08-22T08:35:21.190Z,47776
2017-08-22T08:36:21.176Z,42368
2017-08-22T08:37:21.154Z,35360
2017-08-22T08:38:21.145Z,35776
2017-08-22T08:39:21.130Z,33984
2017-08-22T08:40:21.121Z,32192
2017-08-22T08:41:20.812Z,39200
2017-08-22T08:42:21.092Z,34400
2017-08-22T08:43:21.073Z,37024
2017-08-22T08:44:20.764Z,36384
2017-08-22T08:45:21.064Z,37280
2017-08-22T08:46:21.068Z,29504
2017-08-22T08:47:20.434Z,46272
2017-08-22T08:48:20.415Z,37600
2017-08-22T08:49:21.014Z,42112
2017-08-22T08:50:21.004Z,32384
2017-08-22T08:51:20.380Z,30272
2017-08-22T08:52:20.992Z,34944
2017-08-22T08:53:20.959Z,28128
2017-08-22T08:54:20.954Z,29856
2017-08-22T08:55:20.322Z,27552
2017-08-22T08:56:20.613Z,31040
2017-08-22T08:57:20.913Z,31744
2017-08-22T08:58:20.890Z,39328
2017-08-22T08:59:20.585Z,33280
2017-08-22T09:00:20.877Z,30688
2017-08-22T09:01:20.865Z,36480
2017-08-22T09:02:20.546Z,36832
2017-08-22T09:03:20.537Z,33792
2017-08-22T09:04:20.527Z,26688
2017-08-22T09:05:20.511Z,34592
2017-08-22T09:06:20.516Z,39168
2017-08-22T09:07:20.192Z,32192
2017-08-22T09:08:20.487Z,28896
2017-08-22T09:09:20.469Z,30144
2017-08-22T09:10:20.454Z,27072
2017-08-22T09:11:20.433Z,29184
2017-08-22T09:12:20.419Z,35872
2017-08-22T09:13:20.714Z,30208
2017-08-22T09:14:20.401Z,29792
2017-08-22T09:15:20.703Z,36640
2017-08-22T09:16:20.688Z,33952
2017-08-22T09:17:20.669Z,40096
2017-08-22T09:18:20.364Z,36288
2017-08-22T09:19:20.349Z,40512
2017-08-22T09:20:20.337Z,30816
2017-08-22T09:21:20.612Z,32416
2017-08-22T09:22:20.617Z,45440
2017-08-22T09:23:20.597Z,38912
2017-08-22T09:24:20.311Z,33120
2017-08-22T09:25:20.589Z,29248
2017-08-22T09:26:20.573Z,35424
2017-08-22T09:27:20.270Z,28192
2017-08-22T09:28:20.536Z,38144
2017-08-22T09:29:20.533Z,32768
2017-08-22T09:30:20.220Z,36928
2017-08-22T09:31:20.501Z,37888
2017-08-22T09:32:20.716Z,28928
2017-08-22T09:33:20.490Z,27232
2017-08-22T09:34:20.471Z,39296
2017-08-22T09:35:20.144Z,32128
2017-08-22T09:36:20.447Z,39456
2017-08-22T09:37:20.439Z,37056
2017-08-22T09:38:20.426Z,43456
2017-08-22T09:39:20.417Z,35552
2017-08-22T09:40:20.403Z,38336
2017-08-22T09:41:20.374Z,31488
2017-08-22T09:42:20.376Z,34624
2017-08-22T09:43:20.364Z,29440
2017-08-22T09:44:20.049Z,28064
2017-08-22T09:45:20.334Z,25248
2017-08-22T09:46:20.336Z,26752
2017-08-22T09:47:20.313Z,34080
2017-08-22T09:48:20.302Z,38944
2017-08-22T09:49:19.989Z,38816
2017-08-22T09:50:20.267Z,41664
2017-08-22T09:51:20.266Z,28480
2017-08-22T09:52:19.955Z,26656
2017-08-22T09:53:20.232Z,40416
2017-08-22T09:54:20.228Z,26176
2017-08-22T09:55:20.216Z,29024
2017-08-22T09:56:20.222Z,65888
2017-08-22T09:57:19.884Z,29216
2017-08-22T09:58:20.185Z,24224
2017-08-22T09:59:20.176Z,25376
2017-08-22T10:00:20.139Z,26912
2017-08-22T10:01:19.836Z,26208
2017-08-22T10:02:19.832Z,20224
2017-08-22T10:03:19.796Z,20928
2017-08-22T10:04:20.103Z,21632
2017-08-22T10:05:19.475Z,20928
2017-08-22T10:06:20.068Z,21152
2017-08-22T10:07:19.758Z,23904
2017-08-22T10:08:20.058Z,23936
2017-08-22T10:09:20.032Z,28640
2017-08-22T10:10:19.730Z,28416
2017-08-22T10:11:19.703Z,30304
2017-08-22T10:12:20.010Z,28064
2017-08-22T10:13:19.988Z,29600
2017-08-22T10:14:19.975Z,26464
2017-08-22T10:15:19.961Z,25280
2017-08-22T10:16:19.957Z,30048
2017-08-22T10:17:19.946Z,27520
2017-08-22T10:18:19.925Z,29728
2017-08-22T10:19:19.917Z,27296
2017-08-22T10:20:19.915Z,26048
2017-08-22T10:21:19.895Z,33600
2017-08-22T10:22:19.883Z,27328
2017-08-22T10:23:19.870Z,29920
2017-08-22T10:24:19.862Z,34464
2017-08-22T10:25:19.846Z,59392
2017-08-22T10:26:19.545Z,32480
2017-08-22T10:27:19.815Z,29120
2017-08-22T10:28:19.804Z,29120
2017-08-22T10:29:19.792Z,50432
2017-08-22T10:30:19.788Z,38464
2017-08-22T10:31:19.776Z,54912
2017-08-22T10:32:19.447Z,37248
2017-08-22T10:33:19.445Z,25504
2017-08-22T10:34:19.740Z,54528
2017-08-22T10:35:19.414Z,55264
2017-08-22T10:36:19.719Z,42944
2017-08-22T10:37:19.693Z,40416
2017-08-22T10:38:19.694Z,33568
2017-08-22T10:39:19.676Z,40832
2017-08-22T10:40:19.680Z,82016
2017-08-22T10:41:19.642Z,46912
2017-08-22T10:42:19.631Z,58528
2017-08-22T10:43:19.626Z,59616
2017-08-22T10:44:19.617Z,43584
2017-08-22T10:45:19.593Z,52032
2017-08-22T10:46:19.594Z,60608
2017-08-22T10:47:19.281Z,68992
2017-08-22T10:48:19.575Z,44064
2017-08-22T10:49:19.559Z,40800
2017-08-22T10:50:19.548Z,40352
2017-08-22T10:51:19.535Z,95616
2017-08-22T10:52:19.206Z,51904
2017-08-22T10:53:19.509Z,46080
2017-08-22T10:54:19.486Z,53600
2017-08-22T10:55:19.494Z,44800
2017-08-22T10:56:19.471Z,36032
2017-08-22T10:57:19.478Z,51392
2017-08-22T10:58:19.444Z,50752
2017-08-22T10:59:19.431Z,46240
2017-08-22T11:00:19.422Z,38080
2017-08-22T11:01:19.408Z,28960
2017-08-22T11:02:19.391Z,95808
2017-08-22T11:03:19.403Z,73088
2017-08-22T11:04:19.375Z,67712
2017-08-22T11:05:18.763Z,37952
2017-08-22T11:06:19.049Z,38432
2017-08-22T11:07:19.043Z,38400
2017-08-22T11:08:18.723Z,45504
2017-08-22T11:09:19.325Z,37984
2017-08-22T11:10:19.324Z,46432
2017-08-22T11:11:18.991Z,54848
2017-08-22T11:12:19.288Z,42528
2017-08-22T11:13:19.291Z,36544
2017-08-22T11:14:19.266Z,62688
2017-08-22T11:15:19.253Z,47456
2017-08-22T11:16:18.958Z,36032
2017-08-22T11:17:18.932Z,36288
2017-08-22T11:18:18.916Z,53120
2017-08-22T11:19:19.219Z,49088
2017-08-22T11:20:18.897Z,35584
2017-08-22T11:21:18.904Z,31616
2017-08-22T11:22:19.183Z,47808
2017-08-22T11:23:19.183Z,52928
2017-08-22T11:24:18.851Z,39392
2017-08-22T11:25:19.153Z,37408
2017-08-22T11:26:19.129Z,35808
2017-08-22T11:27:19.117Z,47104
2017-08-22T11:28:19.117Z,52736
2017-08-22T11:29:18.792Z,48736
2017-08-22T11:30:18.796Z,47872
2017-08-22T11:31:19.066Z,58784
2017-08-22T11:32:19.065Z,57056
2017-08-22T11:33:19.052Z,53888
2017-08-22T11:34:18.753Z,47968
2017-08-22T11:35:19.038Z,49408
2017-08-22T11:36:19.022Z,52800
2017-08-22T11:37:18.713Z,34592
2017-08-22T11:38:18.701Z,35136
2017-08-22T11:39:18.684Z,49664
2017-08-22T11:40:18.680Z,62752
2017-08-22T11:41:18.953Z,63968
2017-08-22T11:42:18.953Z,60448
2017-08-22T11:43:18.944Z,53344
2017-08-22T11:44:18.930Z,57312
2017-08-22T11:45:18.928Z,62432
2017-08-22T11:46:18.604Z,51168
2017-08-22T11:47:18.900Z,35520
2017-08-22T11:48:18.577Z,35488
2017-08-22T11:49:18.873Z,47840
2017-08-22T11:50:18.864Z,46880
2017-08-22T11:51:18.863Z,43648
2017-08-22T11:52:18.855Z,47008
2017-08-22T11:53:18.231Z,56448
2017-08-22T11:54:18.533Z,66272
2017-08-22T11:55:18.816Z,73472
2017-08-22T11:56:18.809Z,57856
2017-08-22T11:57:18.803Z,36640
2017-08-22T11:58:18.465Z,50368
2017-08-22T11:59:18.770Z,70496
2017-08-22T12:00:18.464Z,60160
2017-08-22T12:01:18.765Z,63968
2017-08-22T12:02:18.429Z,53184
2017-08-22T12:03:18.721Z,67104
2017-08-22T12:04:18.420Z,81248
2017-08-22T12:05:18.399Z,78016
2017-08-22T12:06:18.085Z,79456
2017-08-22T12:07:18.670Z,58400
2017-08-22T12:08:18.669Z,49408
2017-08-22T12:09:18.674Z,43936
2017-08-22T12:10:18.646Z,41440
2017-08-22T12:11:18.648Z,37120
2017-08-22T12:12:18.638Z,18400
2017-08-22T12:13:18.311Z,32576
2017-08-22T12:14:18.599Z,46912
2017-08-22T12:15:18.592Z,29472
2017-08-22T12:16:18.588Z,35872
2017-08-22T12:17:18.575Z,42880
2017-08-22T12:18:18.559Z,58752
2017-08-22T12:19:18.554Z,70752
2017-08-22T12:20:18.544Z,41632
2017-08-22T12:21:18.228Z,46208
2017-08-22T12:22:18.526Z,37824
2017-08-22T12:23:18.507Z,36608
2017-08-22T12:24:18.192Z,36800
2017-08-22T12:25:18.485Z,36256
2017-08-22T12:26:18.169Z,30656
2017-08-22T12:27:18.165Z,34272
2017-08-22T12:28:18.451Z,28224
2017-08-22T12:29:18.452Z,20992
2017-08-22T12:30:18.154Z,19456
2017-08-22T12:31:18.123Z,20672
2017-08-22T12:32:18.399Z,20480
2017-08-22T12:33:18.421Z,19680
2017-08-22T12:34:18.099Z,21824
2017-08-22T12:35:18.084Z,22688
2017-08-22T12:36:18.376Z,43680
2017-08-22T12:37:18.349Z,122464
2017-08-22T12:38:18.042Z,74400
2017-08-22T12:39:18.333Z,42560
2017-08-22T12:40:18.330Z,71520
2017-08-22T12:41:18.324Z,32448
2017-08-22T12:42:18.319Z,33312
2017-08-22T12:43:18.301Z,52192
2017-08-22T12:44:18.283Z,28192
2017-08-22T12:45:18.276Z,16216
2017-08-22T12:46:18.273Z,18912
2017-08-22T12:47:18.266Z,21760
2017-08-22T12:48:17.931Z,21248
2017-08-22T12:49:18.230Z,31136
2017-08-22T12:50:18.222Z,34208
2017-08-22T12:51:18.201Z,38816
2017-08-22T12:52:18.203Z,38432
2017-08-22T12:53:18.180Z,46048
2017-08-22T12:54:18.173Z,37376
2017-08-22T12:55:17.858Z,27104
2017-08-22T12:56:18.146Z,31488
2017-08-22T12:57:18.139Z,33728
2017-08-22T12:58:18.132Z,27776
2017-08-22T12:59:18.118Z,24864
2017-08-22T13:00:18.100Z,28032
2017-08-22T13:01:17.788Z,31552
2017-08-22T13:02:18.095Z,41312
2017-08-22T13:03:18.080Z,40672
2017-08-22T13:04:17.751Z,46144
2017-08-22T13:05:17.442Z,47392
2017-08-22T13:06:17.738Z,50080
2017-08-22T13:07:18.033Z,51872
2017-08-22T13:08:17.710Z,36736
2017-08-22T13:09:18.065Z,54048
2017-08-22T13:10:17.697Z,44544
2017-08-22T13:11:17.695Z,36128
2017-08-22T13:12:17.677Z,38784
2017-08-22T13:13:17.688Z,102816
2017-08-22T13:14:17.660Z,33600
2017-08-22T13:15:17.941Z,23104
2017-08-22T13:16:17.653Z,17088
2017-08-22T13:17:17.918Z,33536
2017-08-22T13:18:17.662Z,40224
2017-08-22T13:19:17.599Z,40096
2017-08-22T13:20:17.592Z,30560
2017-08-22T13:21:17.900Z,26048
2017-08-22T13:22:17.572Z,16284
2017-08-22T13:23:17.847Z,13860
2017-08-22T13:24:17.845Z,11688
2017-08-22T13:25:17.846Z,13568
2017-08-22T13:26:17.826Z,16584
2017-08-22T13:27:17.819Z,21248
2017-08-22T13:28:17.509Z,29408
2017-08-22T13:29:17.821Z,47200
2017-08-22T13:30:17.791Z,49504
2017-08-22T13:31:17.155Z,41792
2017-08-22T13:32:17.454Z,20224
2017-08-22T13:33:17.448Z,18272
2017-08-22T13:34:17.737Z,13456
2017-08-22T13:35:17.728Z,11844